Time;durP1;ratioP1;P1;durP2;ratioP2;P2;SDS_P1;SDS_P2;PMS_P1;PMS_P2;Temp;Humidity;BMP_temperature;BMP_pressure;BME280_temperature;BME280_humidity;BME280_pressure;Samples;Min_cycle;Max_cycle;Signal;HPM_P1;HPM_P2
2022/08/10 00:03:06;;;;;;;1999.90;999.90;;;;;;;20.43;41.74;99896.63;9975659;23;20637;-76
2022/08/10 00:07:07;;;;;;;1999.90;999.90;;;;;;;20.32;43.75;99896.16;9980220;23;20019;-77
2022/08/10 00:11:09;;;;;;;1999.90;999.90;;;;;;;20.20;43.94;99895.66;9982144;23;20061;-77
2022/08/10 00:15:19;;;;;;;1999.90;999.90;;;;;;;20.07;43.89;99894.38;9999248;23;20034;-77
2022/08/10 00:19:41;;;;;;;1999.90;999.90;;;;;;;19.98;44.04;99892.06;9980836;23;20490;-77
2022/08/10 00:24:03;;;;;;;1999.90;999.90;;;;;;;20.01;44.03;99889.31;9980430;23;20027;-77
2022/08/10 00:28:05;;;;;;;1999.90;999.90;;;;;;;19.94;44.03;99889.59;9981381;23;20019;-77
2022/08/10 00:32:06;;;;;;;1999.90;999.90;;;;;;;19.92;42.35;99889.63;9977203;23;20027;-77
2022/08/10 00:36:08;;;;;;;1999.90;999.90;;;;;;;19.91;42.65;99888.75;9981562;23;20435;-76
2022/08/10 00:40:10;;;;;;;1999.90;999.90;;;;;;;19.92;42.73;99893.13;9981837;23;20689;-77
2022/08/10 00:44:12;;;;;;;1999.90;999.90;;;;;;;19.87;43.89;99881.88;9932745;23;20510;-77
2022/08/10 00:48:13;;;;;;;1999.90;999.90;;;;;;;19.84;43.41;99883.78;9976249;23;20118;-77
2022/08/10 00:52:18;;;;;;;1999.90;999.90;;;;;;;19.81;44.32;99882.09;9956996;23;20023;-77
2022/08/10 00:56:20;;;;;;;1999.90;999.90;;;;;;;19.82;42.88;99885.59;9956280;23;20034;-77
2022/08/10 01:00:42;;;;;;;1999.90;999.90;;;;;;;19.80;43.73;99882.16;9950614;23;20114;-76
2022/08/10 01:04:43;;;;;;;1999.90;999.90;;;;;;;19.82;42.28;99877.69;9956189;23;20054;-77
2022/08/10 01:09:00;;;;;;;1999.90;999.90;;;;;;;19.94;41.75;99884.31;9956240;23;20019;-76
2022/08/10 01:13:28;;;;;;;1999.90;999.90;;;;;;;20.09;41.37;99881.13;9980233;23;20027;-76
2022/08/10 01:17:52;;;;;;;1999.90;999.90;;;;;;;20.19;41.00;99879.91;9951735;23;20027;-76
2022/08/10 01:22:15;;;;;;;1999.90;999.90;;;;;;;20.25;40.85;99886.72;9932875;23;20031;-77
2022/08/10 01:26:35;;;;;;;1999.90;999.90;;;;;;;20.36;40.32;99885.44;9955600;23;20047;-76
2022/08/10 01:30:44;;;;;;;1999.90;999.90;;;;;;;20.41;39.98;99890.56;9980420;23;20423;-76
2022/08/10 01:34:50;;;;;;;1999.90;999.90;;;;;;;20.41;40.29;99886.13;9932056;23;20034;-76
2022/08/10 01:38:53;;;;;;;1999.90;999.90;;;;;;;20.44;39.96;99879.88;9980109;23;20024;-76
2022/08/10 01:42:57;;;;;;;1999.90;999.90;;;;;;;20.43;40.10;99883.44;9996235;23;20035;-76
2022/08/10 01:51:48;;;;;;;1999.90;999.90;;;;;;;20.37;40.44;99895.06;9980811;23;20087;-77
2022/08/10 01:55:53;;;;;;;1999.90;999.90;;;;;;;20.35;40.50;99891.63;9956094;23;20059;-77
2022/08/10 01:59:57;;;;;;;1999.90;999.90;;;;;;;20.33;40.65;99892.59;9980992;23;20016;-77
2022/08/10 02:04:08;;;;;;;1999.90;999.90;;;;;;;20.30;40.53;99890.06;9983665;23;20065;-76
2022/08/10 02:08:16;;;;;;;1999.90;999.90;;;;;;;20.21;41.86;99889.47;9961569;23;20043;-76
2022/08/10 02:12:25;;;;;;;1999.90;999.90;;;;;;;20.01;43.01;99894.59;10000825;23;20023;-77
2022/08/10 02:16:28;;;;;;;1999.90;999.90;;;;;;;19.82;43.86;99889.09;9957058;23;20059;-77
2022/08/10 02:20:42;;;;;;;1999.90;999.90;;;;;;;19.59;45.23;99886.38;9985271;23;20034;-76
2022/08/10 02:24:45;;;;;;;1999.90;999.90;;;;;;;19.38;45.41;99884.41;9937339;23;20027;-77
2022/08/10 02:28:48;;;;;;;1999.90;999.90;;;;;;;19.18;45.78;99887.66;10001169;23;20406;-77
2022/08/10 02:32:51;;;;;;;1999.90;999.90;;;;;;;19.07;45.91;99890.66;9979491;23;20454;-76
2022/08/10 02:36:56;;;;;;;1999.90;999.90;;;;;;;19.04;46.02;99890.75;9960370;23;20034;-76
2022/08/10 02:41:11;;;;;;;1999.90;999.90;;;;;;;18.98;46.56;99883.03;9984558;23;20030;-76
2022/08/10 02:45:41;;;;;;;1999.90;999.90;;;;;;;18.92;46.85;99893.75;9955291;23;20038;-76
2022/08/10 02:49:50;;;;;;;1999.90;999.90;;;;;;;18.85;47.28;99892.19;10000795;23;20081;-76
2022/08/10 02:54:00;;;;;;;1999.90;999.90;;;;;;;18.76;46.72;99895.13;9984929;23;20046;-77
2022/08/10 02:58:07;;;;;;;1999.90;999.90;;;;;;;18.70;46.64;99894.41;10001005;23;20031;-77
2022/08/10 03:02:26;;;;;;;1999.90;999.90;;;;;;;18.56;47.08;99898.31;9978837;23;20054;-77
2022/08/10 03:06:38;;;;;;;1999.90;999.90;;;;;;;18.45;47.74;99893.34;9957146;23;20027;-76
2022/08/10 03:10:42;;;;;;;1999.90;999.90;;;;;;;18.34;48.23;99898.06;9979203;23;20061;-76
2022/08/10 03:14:46;;;;;;;1999.90;999.90;;;;;;;18.17;48.25;99893.25;9978248;23;20050;-76
2022/08/10 03:18:49;;;;;;;1999.90;999.90;;;;;;;18.05;48.64;99904.09;9977304;23;20023;-76
2022/08/10 03:22:55;;;;;;;1999.90;999.90;;;;;;;17.96;49.28;99912.25;9979601;23;20019;-76
2022/08/10 03:26:57;;;;;;;1999.90;999.90;;;;;;;17.84;49.65;99908.16;9994769;23;20307;-76
2022/08/10 03:31:00;;;;;;;1999.90;999.90;;;;;;;17.68;49.67;99902.41;9954688;23;20046;-76
2022/08/10 03:35:04;;;;;;;1999.90;999.90;;;;;;;17.57;49.84;99908.78;9979192;23;20027;-76
2022/08/10 03:39:05;;;;;;;1999.90;999.90;;;;;;;17.49;50.56;99907.22;9979728;23;20019;-76
2022/08/10 03:43:08;;;;;;;1999.90;999.90;;;;;;;17.43;50.61;99902.13;9954144;23;20081;-76
2022/08/10 03:47:11;;;;;;;1999.90;999.90;;;;;;;17.34;50.97;99910.22;9949854;23;20107;-76
2022/08/10 03:51:18;;;;;;;1999.90;999.90;;;;;;;17.24;51.17;99902.63;9956415;23;20023;-76
2022/08/10 03:55:22;;;;;;;1999.90;999.90;;;;;;;17.13;51.50;99903.72;9980970;23;20436;-75
2022/08/10 03:59:44;;;;;;;1999.90;999.90;;;;;;;17.01;52.12;99911.84;9982390;23;20114;-76
2022/08/10 04:03:45;;;;;;;1999.90;999.90;;;;;;;16.90;53.13;99909.47;9951703;23;20034;-76
2022/08/10 04:07:47;;;;;;;1999.90;999.90;;;;;;;16.79;53.88;99916.72;9957008;23;20022;-76
2022/08/10 04:11:48;;;;;;;1999.90;999.90;;;;;;;16.73;54.13;99923.84;9981514;23;20262;-76
2022/08/10 04:15:50;;;;;;;1999.90;999.90;;;;;;;16.60;54.22;99915.34;9977659;23;20498;-76
2022/08/10 04:19:53;;;;;;;1999.90;999.90;;;;;;;16.58;55.28;99925.00;9958089;23;20856;-76
2022/08/10 04:23:58;;;;;;;1999.90;999.90;;;;;;;16.57;54.74;99931.13;9981412;23;20270;-76
2022/08/10 04:28:00;;;;;;;1999.90;999.90;;;;;;;16.61;54.97;99932.78;9997141;23;20019;-76
2022/08/10 04:32:05;;;;;;;1999.90;999.90;;;;;;;16.59;55.04;99932.81;9977337;23;20347;-76
2022/08/10 04:36:10;;;;;;;1999.90;999.90;;;;;;;16.53;55.18;99929.47;9980573;23;20035;-76
2022/08/10 04:40:12;;;;;;;1999.90;999.90;;;;;;;16.53;55.36;99932.09;9981219;23;20426;-76
2022/08/10 04:44:31;;;;;;;1999.90;999.90;;;;;;;16.56;55.65;99930.28;9956422;23;20083;-76
2022/08/10 04:48:33;;;;;;;1999.90;999.90;;;;;;;16.59;55.37;99929.34;9976853;23;20410;-76
2022/08/10 04:52:54;;;;;;;1999.90;999.90;;;;;;;16.67;54.96;99931.81;9959775;23;20054;-76
2022/08/10 04:56:56;;;;;;;1999.90;999.90;;;;;;;16.76;55.65;99926.41;9957151;23;20023;-76
2022/08/10 05:00:57;;;;;;;1999.90;999.90;;;;;;;16.87;55.26;99932.25;9981562;23;20115;-76
2022/08/10 05:04:59;;;;;;;1999.90;999.90;;;;;;;17.01;55.38;99919.72;9981849;23;20026;-76
2022/08/10 05:09:00;;;;;;;1999.90;999.90;;;;;;;17.17;54.64;99921.09;9955378;23;20023;-76
2022/08/10 05:13:02;;;;;;;1999.90;999.90;;;;;;;17.32;55.43;99927.78;9955215;23;20106;-76
2022/08/10 05:17:04;;;;;;;1999.90;999.90;;;;;;;17.50;54.83;99929.97;9951119;23;20027;-76
2022/08/10 05:21:05;;;;;;;1999.90;999.90;;;;;;;17.64;54.33;99936.66;9979888;23;20019;-76
2022/08/10 05:25:13;;;;;;;1999.90;999.90;;;;;;;17.76;53.80;99937.22;9931715;23;20027;-76
2022/08/10 05:29:15;;;;;;;1999.90;999.90;;;;;;;17.97;54.53;99941.09;9954652;23;20368;-76
2022/08/10 05:33:16;;;;;;;1999.90;999.90;;;;;;;18.18;54.08;99944.06;9950458;23;20439;-76
2022/08/10 05:37:18;;;;;;;1999.90;999.90;;;;;;;18.60;52.81;99942.88;9979560;23;20319;-76
2022/08/10 05:41:40;;;;;;;1999.90;999.90;;;;;;;19.57;50.14;99943.53;9954991;23;20097;-76
2022/08/10 05:45:51;;;;;;;1999.90;999.90;;;;;;;20.44;46.85;99945.84;9974095;23;20075;-76
2022/08/10 05:50:15;;;;;;;1999.90;999.90;;;;;;;21.12;44.47;99938.00;9979294;23;20127;-76
2022/08/10 05:54:17;;;;;;;1999.90;999.90;;;;;;;21.58;42.99;99951.22;9956488;23;20115;-76
2022/08/10 05:58:18;;;;;;;;;;;;;;;21.80;42.05;99954.69;9981115;23;20030;-77
2022/08/10 06:02:30;;;;;;;1999.90;999.90;;;;;;;22.02;41.38;99957.28;9980156;23;19922;-77
2022/08/10 06:06:46;;;;;;;1999.90;999.90;;;;;;;22.38;40.76;99961.97;9955751;23;20930;-76
2022/08/10 06:10:49;;;;;;;1999.90;999.90;;;;;;;22.92;39.78;99956.88;9995590;23;20034;-76
2022/08/10 06:15:14;;;;;;;1999.90;999.90;;;;;;;23.43;38.55;99967.75;9952078;23;20113;-77
2022/08/10 06:19:23;;;;;;;1999.90;999.90;;;;;;;23.89;37.07;99966.41;9954106;23;20082;-77
2022/08/10 06:23:27;;;;;;;1999.90;999.90;;;;;;;24.29;36.05;99975.88;9955990;23;20483;-76
2022/08/10 06:27:28;;;;;;;1999.90;999.90;;;;;;;24.69;35.52;99979.97;9979527;23;20023;-76
2022/08/10 06:31:39;;;;;;;1999.90;999.90;;;;;;;24.92;34.53;99978.72;9950132;23;20715;-76
2022/08/10 06:35:53;;;;;;;1999.90;999.90;;;;;;;25.14;34.26;99986.44;9964168;23;20027;-77
2022/08/10 06:39:55;;;;;;;1999.90;999.90;;;;;;;25.41;33.72;99975.22;9978482;23;20038;-77
2022/08/10 06:44:04;;;;;;;1999.90;999.90;;;;;;;25.67;33.38;99973.72;9981319;23;20027;-77
2022/08/10 06:48:31;;;;;;;1999.90;999.90;;;;;;;26.00;32.67;99978.91;9974473;23;20031;-77
2022/08/10 06:52:34;;;;;;;1999.90;999.90;;;;;;;26.26;32.39;99975.59;9977988;23;20115;-76
2022/08/10 06:56:43;;;;;;;1999.90;999.90;;;;;;;26.38;32.41;99976.69;9978802;23;20071;-77
2022/08/10 07:01:11;;;;;;;1999.90;999.90;;;;;;;26.62;31.90;99977.00;9975096;23;20126;-77
2022/08/10 07:05:18;;;;;;;1999.90;999.90;;;;;;;26.79;31.43;99984.84;9977988;23;20383;-76
2022/08/10 07:09:21;;;;;;;1999.90;999.90;;;;;;;26.90;31.43;99976.16;9992891;23;20062;-73
2022/08/10 07:13:23;;;;;;;1999.90;999.90;;;;;;;27.05;31.20;99977.88;9977163;23;20108;-73
2022/08/10 07:17:46;;;;;;;1999.90;999.90;;;;;;;27.19;31.01;99987.69;9973998;23;20035;-76
2022/08/10 07:21:49;;;;;;;1999.90;999.90;;;;;;;27.31;30.87;99989.59;9975561;23;20031;-74
2022/08/10 07:25:59;;;;;;;1999.90;999.90;;;;;;;27.50;30.79;99982.13;9979084;23;20037;-75
2022/08/10 07:30:02;;;;;;;1999.90;999.90;;;;;;;27.68;30.53;99988.09;9979202;23;20657;-74
2022/08/10 07:34:06;;;;;;;1999.90;999.90;;;;;;;27.89;30.20;99989.34;9979542;23;20051;-76
2022/08/10 07:38:11;;;;;;;1999.90;999.90;;;;;;;28.02;30.33;99981.38;9957285;23;20020;-76
2022/08/10 07:42:16;;;;;;;1999.90;999.90;;;;;;;28.21;29.72;99991.69;9931655;23;20636;-76
2022/08/10 07:46:21;;;;;;;1999.90;999.90;;;;;;;28.36;29.29;99989.78;9976819;23;20657;-76
2022/08/10 07:50:24;;;;;;;1999.90;999.90;;;;;;;28.47;29.13;99989.91;9980810;23;20054;-76
2022/08/10 07:54:30;;;;;;;1999.90;999.90;;;;;;;28.66;29.26;99985.00;9981342;23;20102;-76
2022/08/10 07:58:38;;;;;;;1999.90;999.90;;;;;;;28.85;28.66;99977.41;9981492;23;20023;-76
2022/08/10 08:02:52;;;;;;;1999.90;999.90;;;;;;;29.17;28.33;99979.63;9981173;23;20068;-74
2022/08/10 08:06:57;;;;;;;1999.90;999.90;;;;;;;29.40;27.74;99975.28;9979583;23;20023;-74
2022/08/10 08:10:59;;;;;;;1999.90;999.90;;;;;;;29.50;27.70;99989.75;9979959;23;20023;-74
2022/08/10 08:15:02;;;;;;;1999.90;999.90;;;;;;;29.58;27.72;99983.81;9956402;23;20034;-75
2022/08/10 08:19:25;;;;;;;1999.90;999.90;;;;;;;29.73;27.40;99986.22;9980652;23;20032;-75
2022/08/10 08:23:38;;;;;;;1999.90;999.90;;;;;;;29.70;27.54;99988.28;9954967;23;20054;-75
2022/08/10 08:28:01;;;;;;;1999.90;999.90;;;;;;;29.84;27.21;99977.41;9958962;23;20362;-75
2022/08/10 08:32:04;;;;;;;1999.90;999.90;;;;;;;29.97;26.98;99983.53;9951279;23;20031;-75
2022/08/10 08:36:07;;;;;;;1999.90;999.90;;;;;;;30.08;26.82;99983.59;9979438;23;20034;-75
2022/08/10 08:40:25;;;;;;;1999.90;999.90;;;;;;;30.16;26.43;99980.31;9979804;23;20050;-75
2022/08/10 08:44:58;;;;;;;1999.90;999.90;;;;;;;30.15;26.28;99975.09;9971547;23;20028;-75
2022/08/10 08:49:30;;;;;;;1999.90;999.90;;;;;;;30.20;26.44;99972.94;9951123;23;20347;-75
2022/08/10 08:54:22;;;;;;;1999.90;999.90;;;;;;;30.29;26.40;99975.75;9978095;23;20027;-76
2022/08/10 08:59:03;;;;;;;1999.90;999.90;;;;;;;30.34;25.81;99970.91;9955862;23;20019;-75
2022/08/10 09:03:26;;;;;;;1999.90;999.90;;;;;;;30.47;25.72;99973.47;9926192;23;20030;-76
2022/08/10 09:07:57;;;;;;;1999.90;999.90;;;;;;;30.48;25.74;99971.66;9956690;23;20031;-74
2022/08/10 09:12:31;;;;;;;1999.90;999.90;;;;;;;30.49;25.74;99976.03;9977102;23;20131;-74
2022/08/10 09:16:58;;;;;;;1999.90;999.90;;;;;;;30.60;25.68;99982.28;9976004;23;20058;-75
2022/08/10 09:21:12;;;;;;;1999.90;999.90;;;;;;;30.47;25.16;99973.47;9954809;23;20086;-76
2022/08/10 09:25:18;;;;;;;1999.90;999.90;;;;;;;30.47;25.43;99973.47;9995121;23;20057;-75
2022/08/10 09:29:30;;;;;;;1999.90;999.90;;;;;;;30.49;25.36;99968.00;9955863;23;20030;-75
2022/08/10 09:34:02;;;;;;;1999.90;999.90;;;;;;;30.53;25.34;99975.69;9978548;23;20046;-76
2022/08/10 09:38:44;;;;;;;1999.90;999.90;;;;;;;30.66;25.39;99952.31;9980441;23;20035;-75
2022/08/10 09:42:49;;;;;;;1999.90;999.90;;;;;;;30.87;25.80;99963.19;9954900;23;20054;-76
2022/08/10 09:47:29;;;;;;;1999.90;999.90;;;;;;;30.91;24.98;99958.44;9971457;23;20491;-75
2022/08/10 09:52:10;;;;;;;1999.90;999.90;;;;;;;31.03;25.35;99952.06;9973439;23;20038;-75
2022/08/10 09:56:30;;;;;;;1999.90;999.90;;;;;;;31.13;24.45;99946.84;9954552;23;20110;-76
2022/08/10 10:00:43;;;;;;;1999.90;999.90;;;;;;;31.11;24.51;99943.44;9974038;23;20034;-76
2022/08/10 10:05:11;;;;;;;1999.90;999.90;;;;;;;30.99;24.43;99947.94;9978528;23;20034;-75
2022/08/10 10:09:12;;;;;;;1999.90;999.90;;;;;;;30.98;24.30;99930.16;9979669;23;20023;-75
2022/08/10 10:13:43;;;;;;;1999.90;999.90;;;;;;;30.91;24.40;99920.91;9979873;23;20106;-76
2022/08/10 10:18:30;;;;;;;1999.90;999.90;;;;;;;31.07;24.23;99918.69;9974789;23;20031;-75
2022/08/10 10:22:51;;;;;;;1999.90;999.90;;;;;;;31.24;24.11;99915.50;9954636;23;20090;-76
2022/08/10 10:26:58;;;;;;;1999.90;999.90;;;;;;;31.25;23.42;99925.28;9979505;23;20034;-76
2022/08/10 10:31:03;;;;;;;1999.90;999.90;;;;;;;31.25;23.10;99924.41;9949855;23;20035;-76
2022/08/10 10:35:23;;;;;;;1999.90;999.90;;;;;;;31.35;23.12;99909.25;9958782;23;20724;-74
2022/08/10 10:39:25;;;;;;;1999.90;999.90;;;;;;;31.33;22.91;99911.22;9993939;23;20026;-75
2022/08/10 10:43:43;;;;;;;1999.90;999.90;;;;;;;31.40;22.50;99903.50;9975877;23;20019;-75
2022/08/10 10:48:22;;;;;;;1999.90;999.90;;;;;;;31.49;22.63;99902.75;9978488;23;20055;-75
2022/08/10 10:52:54;;;;;;;1999.90;999.90;;;;;;;31.64;22.26;99911.34;9977438;23;20098;-75
2022/08/10 10:57:21;;;;;;;1999.90;999.90;;;;;;;31.58;21.68;99905.50;9979308;23;20047;-75
2022/08/10 11:02:16;;;;;;;1999.90;999.90;;;;;;;31.64;21.81;99896.09;9974218;23;20118;-75
2022/08/10 11:06:36;;;;;;;1999.90;999.90;;;;;;;31.72;21.99;99899.00;9981107;23;20110;-76
2022/08/10 11:10:47;;;;;;;1999.90;999.90;;;;;;;31.78;21.26;99884.22;9982109;23;20024;-75
2022/08/10 11:15:07;;;;;;;1999.90;999.90;;;;;;;31.81;21.89;99879.44;9982811;23;20019;-75
2022/08/10 11:19:17;;;;;;;1999.90;999.90;;;;;;;31.88;22.37;99871.72;9979990;23;20065;-75
2022/08/10 11:23:30;;;;;;;1999.90;999.90;;;;;;;32.00;22.47;99877.88;9980729;23;20335;-75
2022/08/10 11:27:59;;;;;;;1999.90;999.90;;;;;;;32.10;21.88;99886.84;9997623;23;20023;-75
2022/08/10 11:32:08;;;;;;;1999.90;999.90;;;;;;;32.12;21.56;99879.50;9986900;23;20075;-75
2022/08/10 11:36:45;;;;;;;1999.90;999.90;;;;;;;32.14;21.98;99861.41;9981261;23;20673;-73
2022/08/10 11:41:14;;;;;;;1999.90;999.90;;;;;;;32.04;21.66;99853.28;10003315;23;20117;-74
2022/08/10 11:45:41;;;;;;;1999.90;999.90;;;;;;;32.33;20.95;99850.81;9977371;23;20083;-74
2022/08/10 11:50:02;;;;;;;1999.90;999.90;;;;;;;32.30;21.12;99842.97;9976134;23;20363;-74
2022/08/10 11:54:25;;;;;;;1999.90;999.90;;;;;;;32.49;20.54;99858.34;9977732;23;20042;-74
2022/08/10 12:02:57;;;;;;;1999.90;999.90;;;;;;;32.58;20.91;99852.16;9974678;23;20038;-74
2022/08/10 12:07:03;;;;;;;1999.90;999.90;;;;;;;32.75;20.46;99845.28;9978984;23;20426;-74
2022/08/10 12:11:28;;;;;;;1999.90;999.90;;;;;;;32.70;20.36;99832.25;9976722;23;20087;-74
2022/08/10 12:16:00;;;;;;;1999.90;999.90;;;;;;;32.64;19.77;99821.19;9972879;23;20030;-74
2022/08/10 12:20:08;;;;;;;1999.90;999.90;;;;;;;32.68;20.85;99823.47;9992970;23;20034;-74
2022/08/10 12:24:16;;;;;;;1999.90;999.90;;;;;;;32.55;20.53;99822.88;9979534;23;20034;-73
2022/08/10 12:28:28;;;;;;;1999.90;999.90;;;;;;;32.63;20.92;99816.78;9980068;23;20023;-73
2022/08/10 12:32:53;;;;;;;1999.90;999.90;;;;;;;32.84;20.86;99814.88;9976038;23;20031;-73
2022/08/10 12:37:18;;;;;;;1999.90;999.90;;;;;;;32.98;20.93;99810.97;9931751;23;20050;-73
2022/08/10 12:41:24;;;;;;;1999.90;999.90;;;;;;;33.01;20.52;99819.59;9981334;23;20106;-74
2022/08/10 12:46:00;;;;;;;1999.90;999.90;;;;;;;32.99;20.43;99808.13;9956510;23;20070;-73
2022/08/10 12:50:23;;;;;;;1999.90;999.90;;;;;;;33.04;20.58;99805.88;9980735;23;20019;-73
2022/08/10 12:54:35;;;;;;;1999.90;999.90;;;;;;;32.99;21.20;99783.06;9981003;23;20460;-73
2022/08/10 12:58:40;;;;;;;1999.90;999.90;;;;;;;33.06;20.82;99797.66;9980573;23;20047;-74
2022/08/10 13:03:05;;;;;;;1999.90;999.90;;;;;;;32.92;20.97;99788.16;9976037;23;20031;-74
2022/08/10 13:07:09;;;;;;;1999.90;999.90;;;;;;;33.11;21.03;99783.78;9955714;23;20119;-73
2022/08/10 13:11:31;;;;;;;1999.90;999.90;;;;;;;33.03;20.35;99765.63;9979575;23;20110;-74
2022/08/10 13:15:56;;;;;;;1999.90;999.90;;;;;;;33.02;20.13;99780.94;9976079;23;20039;-74
2022/08/10 13:20:02;;;;;;;1999.90;999.90;;;;;;;32.98;20.00;99778.66;9981259;23;20471;-75
2022/08/10 13:24:16;;;;;;;1999.90;999.90;;;;;;;33.01;20.11;99759.53;9979140;23;20497;-75
2022/08/10 13:28:36;;;;;;;1999.90;999.90;;;;;;;33.03;20.43;99752.19;9976231;23;20019;-75
2022/08/10 13:32:48;;;;;;;1999.90;999.90;;;;;;;33.14;20.12;99756.59;9950938;23;20024;-75
2022/08/10 13:36:59;;;;;;;1999.90;999.90;;;;;;;33.17;20.24;99756.28;9978109;23;20110;-75
2022/08/10 13:41:02;;;;;;;1999.90;999.90;;;;;;;33.16;19.68;99746.53;9979396;23;20034;-75
2022/08/10 13:45:16;;;;;;;1999.90;999.90;;;;;;;33.15;19.74;99737.59;9952148;23;20066;-75
2022/08/10 13:49:20;;;;;;;1999.90;999.90;;;;;;;33.17;19.96;99753.59;9979724;23;20071;-75
2022/08/10 13:53:27;;;;;;;1999.90;999.90;;;;;;;33.02;19.73;99737.03;9955563;23;20051;-75
2022/08/10 13:57:32;;;;;;;1999.90;999.90;;;;;;;32.97;19.81;99733.91;9954346;23;20026;-74
2022/08/10 14:01:35;;;;;;;1999.90;999.90;;;;;;;33.01;19.92;99719.19;9984635;23;20058;-74
2022/08/10 14:05:41;;;;;;;1999.90;999.90;;;;;;;33.05;19.97;99723.31;9979061;23;20028;-75
2022/08/10 14:09:46;;;;;;;1999.90;999.90;;;;;;;33.20;19.60;99708.41;9977018;23;20070;-75
2022/08/10 14:13:57;;;;;;;1999.90;999.90;;;;;;;33.34;19.45;99701.75;9976772;23;20054;-75
2022/08/10 14:17:59;;;;;;;1999.90;999.90;;;;;;;33.30;19.03;99703.88;9981275;23;20529;-75
2022/08/10 14:22:01;;;;;;;1999.90;999.90;;;;;;;33.38;18.82;99707.69;9976972;23;20023;-74
2022/08/10 14:26:06;;;;;;;1999.90;999.90;;;;;;;33.22;18.87;99694.81;9954696;23;20023;-75
2022/08/10 14:30:14;;;;;;;1999.90;999.90;;;;;;;33.25;18.62;99697.22;9927097;23;20098;-75
2022/08/10 14:34:18;;;;;;;1999.90;999.90;;;;;;;33.28;18.80;99694.25;9978558;23;20070;-75
2022/08/10 14:38:42;;;;;;;1999.90;999.90;;;;;;;33.28;18.91;99694.25;9955364;23;20050;-75
2022/08/10 14:43:10;;;;;;;1999.90;999.90;;;;;;;33.33;18.55;99697.38;9986825;23;20043;-75
2022/08/10 14:47:15;;;;;;;1999.90;999.90;;;;;;;33.33;19.33;99683.91;9948612;23;20039;-75
2022/08/10 14:51:41;;;;;;;1999.90;999.90;;;;;;;33.36;18.80;99694.38;9974604;23;20549;-75
2022/08/10 14:55:48;;;;;;;1999.90;999.90;;;;;;;33.28;18.78;99688.84;9979320;23;20055;-74
2022/08/10 15:00:03;;;;;;;1999.90;999.90;;;;;;;33.28;19.24;99681.63;9956825;23;20118;-75
2022/08/10 15:04:26;;;;;;;1999.90;999.90;;;;;;;33.27;19.15;99669.16;9978831;23;20023;-75
2022/08/10 15:08:29;;;;;;;1999.90;999.90;;;;;;;33.36;19.22;99664.75;9979599;23;20305;-74
2022/08/10 15:12:39;;;;;;;1999.90;999.90;;;;;;;33.40;18.78;99674.28;9954985;23;20121;-75
2022/08/10 15:16:41;;;;;;;1999.90;999.90;;;;;;;33.44;18.77;99675.69;9974803;23;20463;-76
2022/08/10 15:20:43;;;;;;;1999.90;999.90;;;;;;;33.44;18.43;99672.97;9954626;23;20023;-75
2022/08/10 15:25:03;;;;;;;1999.90;999.90;;;;;;;33.47;18.48;99674.53;9953482;23;20110;-76
2022/08/10 15:29:08;;;;;;;1999.90;999.90;;;;;;;33.48;18.65;99676.22;9979290;23;20450;-75
2022/08/10 15:38:07;;;;;;;1999.90;999.90;;;;;;;33.35;17.96;99657.69;9977707;23;20058;-75
2022/08/10 15:42:17;;;;;;;1999.90;999.90;;;;;;;33.40;18.03;99663.50;9978705;23;20062;-75
2022/08/10 15:46:23;;;;;;;1999.90;999.90;;;;;;;33.38;17.89;99654.69;9975798;23;20031;-75
2022/08/10 15:50:35;;;;;;;1999.90;999.90;;;;;;;33.60;18.18;99659.75;9980860;23;20042;-75
2022/08/10 15:54:51;;;;;;;1999.90;999.90;;;;;;;33.74;18.36;99657.56;9955931;23;20027;-75
2022/08/10 15:59:11;;;;;;;1999.90;999.90;;;;;;;33.83;18.27;99645.91;9994534;23;20030;-75
2022/08/10 16:03:21;;;;;;;1999.90;999.90;;;;;;;33.86;18.57;99646.47;9974923;23;20034;-75
2022/08/10 16:07:29;;;;;;;1999.90;999.90;;;;;;;33.83;18.05;99635.13;9981674;23;20371;-76
2022/08/10 16:11:55;;;;;;;1999.90;999.90;;;;;;;33.83;17.93;99633.28;9995732;23;20019;-76
2022/08/10 16:16:03;;;;;;;1999.90;999.90;;;;;;;33.88;18.08;99638.25;9975885;23;20319;-76
2022/08/10 16:20:06;;;;;;;1999.90;999.90;;;;;;;33.80;17.63;99640.81;9931867;23;20023;-76
2022/08/10 16:24:12;;;;;;;1999.90;999.90;;;;;;;33.64;17.91;99644.13;9955627;23;20027;-76
2022/08/10 16:28:16;;;;;;;1999.90;999.90;;;;;;;33.22;18.31;99638.31;9954495;23;20442;-76
2022/08/10 16:32:26;;;;;;;1999.90;999.90;;;;;;;32.70;18.40;99630.53;9973497;23;20062;-75
2022/08/10 16:36:38;;;;;;;1999.90;999.90;;;;;;;32.22;18.77;99638.53;9979646;23;20027;-76
2022/08/10 16:40:43;;;;;;;1999.90;999.90;;;;;;;31.77;19.23;99632.72;9953334;23;20106;-75
2022/08/10 16:45:03;;;;;;;1999.90;999.90;;;;;;;31.37;19.84;99638.03;9995294;23;20503;-75
2022/08/10 16:49:07;;;;;;;1999.90;999.90;;;;;;;30.97;20.33;99644.09;9979089;23;20031;-75
2022/08/10 16:53:15;;;;;;;1999.90;999.90;;;;;;;30.68;20.76;99644.72;9972725;23;20396;-74
2022/08/10 16:57:19;;;;;;;1999.90;999.90;;;;;;;30.44;20.71;99630.66;9954601;23;20043;-75
2022/08/10 17:01:24;;;;;;;1999.90;999.90;;;;;;;30.22;20.80;99634.25;9951944;23;20139;-75
2022/08/10 17:05:28;;;;;;;1999.90;999.90;;;;;;;30.04;21.42;99623.22;9979474;23;20078;-75
2022/08/10 17:09:50;;;;;;;1999.90;999.90;;;;;;;29.90;21.58;99625.28;9958673;23;20114;-75
2022/08/10 17:13:55;;;;;;;1999.90;999.90;;;;;;;29.74;21.97;99614.94;9981269;23;20030;-75
2022/08/10 17:17:59;;;;;;;1999.90;999.90;;;;;;;29.61;22.02;99627.59;9975209;23;20031;-75
2022/08/10 17:22:09;;;;;;;1999.90;999.90;;;;;;;29.52;22.35;99623.00;9955986;23;20390;-75
2022/08/10 17:26:15;;;;;;;1999.90;999.90;;;;;;;29.39;22.21;99625.72;9979322;23;20054;-75
2022/08/10 17:30:24;;;;;;;1999.90;999.90;;;;;;;29.26;22.47;99615.13;9974036;23;20015;-74
2022/08/10 17:34:39;;;;;;;1999.90;999.90;;;;;;;29.17;22.32;99610.50;9978698;23;20091;-75
2022/08/10 17:38:48;;;;;;;1999.90;999.90;;;;;;;29.07;22.65;99610.38;9955189;23;20110;-75
2022/08/10 17:42:50;;;;;;;1999.90;999.90;;;;;;;29.00;22.61;99605.63;9979026;23;20055;-75
2022/08/10 17:46:53;;;;;;;1999.90;999.90;;;;;;;28.89;23.03;99606.44;9984574;23;20034;-75
2022/08/10 17:50:56;;;;;;;1999.90;999.90;;;;;;;28.80;23.04;99616.00;9953350;23;20106;-75
2022/08/10 17:55:06;;;;;;;1999.90;999.90;;;;;;;28.67;23.09;99606.34;9977435;23;20427;-75
2022/08/10 17:59:10;;;;;;;1999.90;999.90;;;;;;;28.57;23.31;99606.19;9980640;23;20054;-75
2022/08/10 18:03:25;;;;;;;1999.90;999.90;;;;;;;28.49;23.04;99613.91;9974610;23;20027;-75
2022/08/10 18:07:33;;;;;;;1999.90;999.90;;;;;;;28.41;22.93;99609.16;9955607;23;20450;-75
2022/08/10 18:11:44;;;;;;;1999.90;999.90;;;;;;;28.28;23.91;99616.38;9978467;23;20042;-75
2022/08/10 18:15:47;;;;;;;1999.90;999.90;;;;;;;28.16;23.76;99614.56;9974956;23;20059;-75
2022/08/10 18:19:57;;;;;;;1999.90;999.90;;;;;;;28.05;23.67;99628.72;9955324;23;20023;-74
2022/08/10 18:24:05;;;;;;;1999.90;999.90;;;;;;;27.93;24.03;99629.59;9931841;23;20027;-75
2022/08/10 18:28:13;;;;;;;1999.90;999.90;;;;;;;27.80;24.67;99631.44;9978840;23;20058;-75
2022/08/10 18:32:17;;;;;;;1999.90;999.90;;;;;;;27.64;25.03;99632.53;9974042;23;20130;-74
2022/08/10 18:36:20;;;;;;;1999.90;999.90;;;;;;;27.47;25.67;99637.31;9970907;23;20027;-75
2022/08/10 18:40:23;;;;;;;1999.90;999.90;;;;;;;27.26;26.51;99637.84;9978562;23;20491;-75
2022/08/10 18:44:41;;;;;;;1999.90;999.90;;;;;;;27.03;26.40;99638.59;9978245;23;20019;-74
2022/08/10 18:49:01;;;;;;;1999.90;999.90;;;;;;;26.85;26.58;99638.00;9972800;23;20073;-75
2022/08/10 18:53:11;;;;;;;1999.90;999.90;;;;;;;26.73;27.47;99636.13;9975346;23;20019;-75